Time;durP1;ratioP1;P1;durP2;ratioP2;P2;SDS_P1;SDS_P2;PMS_P1;PMS_P2;Temp;Humidity;BMP_temperature;BMP_pressure;BME280_temperature;BME280_humidity;BME280_pressure;Samples;Min_cycle;Max_cycle;Signal;HPM_P1;HPM_P2
2022/11/11 00:02:23;;;;;;;17.13;7.38;;;;;;;;;;5051349;28;20075;-65
2022/11/11 00:04:49;;;;;;;17.73;7.72;;;;;;;;;;5051660;28;20036;-65
2022/11/11 00:07:15;;;;;;;14.07;7.53;;;;;;;;;;5051569;28;20037;-65
2022/11/11 00:09:41;;;;;;;16.33;8.25;;;;;;;;;;5051263;28;20048;-65
2022/11/11 00:12:07;;;;;;;16.70;7.78;;;;;;;;;;5051314;28;20093;-65
2022/11/11 00:14:33;;;;;;;20.13;7.43;;;;;;;;;;5051579;28;20053;-65
2022/11/11 00:25:16;;;;;;;14.63;7.35;;;;;;;;;;5051498;28;20049;-65
2022/11/11 00:27:41;;;;;;;17.30;8.85;;;;;;;;;;5051432;28;20040;-65
2022/11/11 00:30:08;;;;;;;15.82;7.68;;;;;;;;;;5051472;28;20384;-65
2022/11/11 00:32:43;;;;;;;16.58;8.23;;;;;;;;;;5051043;28;20096;-65
2022/11/11 00:37:54;;;;;;;19.20;8.45;;;;;;;;;;5051041;28;20113;-65
2022/11/11 00:40:20;;;;;;;17.05;7.95;;;;;;;;;;5051309;28;20041;-65
2022/11/11 00:42:46;;;;;;;14.35;8.05;;;;;;;;;;5051358;28;20036;-65
2022/11/11 00:45:12;;;;;;;16.08;8.93;;;;;;;;;;5051034;28;20056;-65
2022/11/11 00:53:16;;;;;;;16.40;8.35;;;;;;;;;;5050941;28;20053;-65
2022/11/11 00:55:42;;;;;;;16.00;8.85;;;;;;;;;;5051187;28;20044;-65
2022/11/11 00:58:08;;;;;;;17.60;8.82;;;;;;;;;;5051402;28;20037;-65
2022/11/11 01:00:35;;;;;;;14.63;7.97;;;;;;;;;;5050713;28;20041;-65
2022/11/11 01:03:01;;;;;;;17.23;8.82;;;;;;;;;;5052255;28;20037;-65
2022/11/11 01:05:27;;;;;;;14.73;8.52;;;;;;;;;;5054847;28;20045;-65
2022/11/11 01:07:53;;;;;;;18.10;8.40;;;;;;;;;;5054330;28;20036;-65
2022/11/11 01:10:38;;;;;;;18.48;8.80;;;;;;;;;;5055076;28;20045;-65
2022/11/11 01:13:17;;;;;;;19.30;8.45;;;;;;;;;;5054440;28;20060;-65
2022/11/11 01:15:46;;;;;;;21.30;10.20;;;;;;;;;;5054178;28;20056;-65
2022/11/11 01:18:13;;;;;;;18.70;8.55;;;;;;;;;;5054960;28;20103;-65
2022/11/11 01:20:40;;;;;;;20.52;9.88;;;;;;;;;;5054607;28;20069;-65
2022/11/11 01:23:07;;;;;;;16.13;8.80;;;;;;;;;;5054467;28;20048;-65
2022/11/11 01:25:36;;;;;;;21.80;9.30;;;;;;;;;;5054787;28;20041;-65
2022/11/11 01:28:03;;;;;;;21.88;9.20;;;;;;;;;;5054898;28;20044;-65
2022/11/11 01:30:30;;;;;;;19.48;9.52;;;;;;;;;;5054050;28;20041;-65
2022/11/11 01:32:56;;;;;;;18.63;9.70;;;;;;;;;;5054589;28;20368;-65
2022/11/11 01:35:22;;;;;;;19.58;9.73;;;;;;;;;;5054515;28;20103;-65
2022/11/11 01:37:48;;;;;;;19.10;9.93;;;;;;;;;;5054230;28;20033;-65
2022/11/11 01:40:15;;;;;;;18.70;9.93;;;;;;;;;;5054438;28;20036;-65
2022/11/11 01:42:51;;;;;;;21.08;10.65;;;;;;;;;;5054482;28;20044;-65
2022/11/11 01:45:35;;;;;;;22.52;10.63;;;;;;;;;;5054030;28;20060;-65
2022/11/11 01:50:46;;;;;;;20.83;11.95;;;;;;;;;;5054284;28;20067;-65
2022/11/11 01:53:12;;;;;;;20.00;11.13;;;;;;;;;;5053982;28;20548;-65
2022/11/11 01:55:38;;;;;;;20.05;11.35;;;;;;;;;;5054205;28;20049;-65
2022/11/11 01:58:08;;;;;;;19.88;12.27;;;;;;;;;;5054195;28;20037;-65
2022/11/11 02:00:34;;;;;;;24.95;12.02;;;;;;;;;;5053598;28;20120;-65
2022/11/11 02:03:03;;;;;;;23.15;11.88;;;;;;;;;;5054151;28;20070;-65
2022/11/11 02:05:42;;;;;;;23.52;12.25;;;;;;;;;;5053779;28;20432;-65
2022/11/11 02:08:31;;;;;;;24.77;12.27;;;;;;;;;;5053576;28;20082;-65
2022/11/11 02:10:59;;;;;;;25.90;13.70;;;;;;;;;;5053983;28;20480;-65
2022/11/11 02:16:09;;;;;;;20.30;13.07;;;;;;;;;;5052899;28;20088;-65
2022/11/11 02:18:35;;;;;;;24.55;13.07;;;;;;;;;;5053813;28;20479;-65
2022/11/11 02:21:01;;;;;;;25.35;13.57;;;;;;;;;;5053675;28;20396;-65
2022/11/11 02:23:30;;;;;;;25.00;13.10;;;;;;;;;;5053270;28;20033;-65
2022/11/11 02:25:56;;;;;;;27.77;14.48;;;;;;;;;;5053714;28;20520;-65
2022/11/11 02:28:24;;;;;;;24.42;13.32;;;;;;;;;;5053684;28;20071;-65
2022/11/11 02:30:50;;;;;;;32.17;15.50;;;;;;;;;;5053070;28;20407;-65
2022/11/11 02:33:16;;;;;;;27.70;14.80;;;;;;;;;;5053603;28;20041;-65
2022/11/11 02:35:57;;;;;;;28.08;15.30;;;;;;;;;;5053389;28;20049;-65
2022/11/11 02:38:24;;;;;;;26.80;15.75;;;;;;;;;;5053287;28;20036;-65
2022/11/11 02:43:35;;;;;;;34.25;16.98;;;;;;;;;;5052877;28;20069;-65
2022/11/11 02:46:02;;;;;;;31.38;16.85;;;;;;;;;;5053329;28;20580;-65
2022/11/11 02:48:28;;;;;;;27.70;16.48;;;;;;;;;;5053332;28;20047;-65
2022/11/11 02:50:54;;;;;;;28.83;16.70;;;;;;;;;;5052788;28;20683;-65
2022/11/11 02:53:20;;;;;;;32.90;17.20;;;;;;;;;;5053292;28;20037;-65
2022/11/11 02:55:46;;;;;;;29.50;17.38;;;;;;;;;;5053121;28;20124;-65
2022/11/11 02:58:13;;;;;;;27.85;17.27;;;;;;;;;;5052957;28;20040;-65
2022/11/11 03:00:39;;;;;;;36.17;18.65;;;;;;;;;;5052939;28;20072;-65
2022/11/11 03:03:05;;;;;;;27.48;17.48;;;;;;;;;;5052903;28;20051;-65
2022/11/11 03:05:31;;;;;;;30.73;18.35;;;;;;;;;;5052799;28;20048;-65
2022/11/11 03:07:57;;;;;;;28.35;17.92;;;;;;;;;;5052706;28;20516;-65
2022/11/11 03:10:24;;;;;;;33.20;18.52;;;;;;;;;;5052549;28;20045;-65
2022/11/11 03:13:14;;;;;;;33.47;18.33;;;;;;;;;;5052641;28;20064;-65
2022/11/11 03:15:41;;;;;;;35.00;18.98;;;;;;;;;;5052629;28;20092;-65
2022/11/11 03:18:07;;;;;;;31.88;19.10;;;;;;;;;;5052737;28;20060;-65
2022/11/11 03:23:18;;;;;;;34.90;19.65;;;;;;;;;;5052668;28;20044;-65
2022/11/11 03:25:48;;;;;;;36.72;18.63;;;;;;;;;;5052318;28;20043;-65
2022/11/11 03:28:15;;;;;;;34.80;19.23;;;;;;;;;;5052186;28;20040;-65
2022/11/11 03:30:42;;;;;;;31.55;18.88;;;;;;;;;;5052352;28;20041;-65
2022/11/11 03:33:09;;;;;;;38.55;20.00;;;;;;;;;;5052428;28;20041;-65
2022/11/11 03:35:35;;;;;;;36.65;20.15;;;;;;;;;;5051627;28;20055;-65
2022/11/11 03:38:23;;;;;;;31.20;17.88;;;;;;;;;;5052478;28;20037;-65
2022/11/11 03:40:53;;;;;;;32.72;19.55;;;;;;;;;;5052144;28;20052;-65
2022/11/11 03:43:21;;;;;;;33.33;19.88;;;;;;;;;;5052006;28;20036;-65
2022/11/11 03:45:47;;;;;;;34.10;19.50;;;;;;;;;;5052337;28;20044;-65
2022/11/11 03:48:14;;;;;;;37.58;21.23;;;;;;;;;;5052229;28;20044;-65
2022/11/11 03:50:40;;;;;;;30.45;19.08;;;;;;;;;;5051758;28;20037;-65
2022/11/11 03:53:07;;;;;;;27.38;19.02;;;;;;;;;;5051833;28;20053;-65
2022/11/11 03:55:33;;;;;;;35.05;21.77;;;;;;;;;;5051953;28;20040;-65
2022/11/11 03:57:59;;;;;;;33.38;20.65;;;;;;;;;;5051749;28;20116;-65
2022/11/11 04:00:26;;;;;;;36.22;20.17;;;;;;;;;;5051676;28;20535;-65
2022/11/11 04:11:19;;;;;;;33.38;21.02;;;;;;;;;;5051228;28;20059;-65
2022/11/11 04:16:31;;;;;;;38.05;20.88;;;;;;;;;;5051698;28;20470;-65
2022/11/11 04:21:42;;;;;;;36.00;21.60;;;;;;;;;;5051167;28;20071;-65
2022/11/11 04:26:54;;;;;;;33.33;21.77;;;;;;;;;;5051521;28;20040;-65
2022/11/11 04:29:27;;;;;;;36.45;21.38;;;;;;;;;;5050929;28;20055;-65
2022/11/11 04:34:38;;;;;;;34.45;21.83;;;;;;;;;;5050955;28;20399;-65
2022/11/11 04:37:04;;;;;;;37.80;22.27;;;;;;;;;;5051079;28;20041;-65
2022/11/11 04:42:15;;;;;;;38.80;21.90;;;;;;;;;;5050949;28;20422;-65
2022/11/11 04:47:26;;;;;;;38.80;22.02;;;;;;;;;;5051122;28;20052;-65
2022/11/11 04:49:52;;;;;;;33.90;21.30;;;;;;;;;;5050892;28;20033;-65
2022/11/11 04:52:27;;;;;;;41.63;22.85;;;;;;;;;;5051273;28;20060;-65
2022/11/11 04:57:41;;;;;;;32.35;21.35;;;;;;;;;;5050677;28;20132;-65
2022/11/11 05:00:08;;;;;;;36.03;21.42;;;;;;;;;;5051108;28;20083;-65
2022/11/11 05:05:19;;;;;;;40.75;23.30;;;;;;;;;;5050795;28;20081;-65
2022/11/11 05:10:30;;;;;;;43.97;23.02;;;;;;;;;;5051127;28;20447;-65
2022/11/11 05:21:19;;;;;;;37.80;22.17;;;;;;;;;;5050430;28;20107;-65
2022/11/11 05:21:19;;;;;;;38.33;21.58;;;;;;;;;;5050691;28;20044;-65
2022/11/11 05:26:30;;;;;;;34.35;21.17;;;;;;;;;;5050589;28;20045;-65
2022/11/11 05:28:56;;;;;;;38.20;22.52;;;;;;;;;;5051008;28;20036;-65
2022/11/11 05:31:22;;;;;;;35.95;21.25;;;;;;;;;;5050686;28;20479;-65
2022/11/11 05:33:48;;;;;;;40.10;23.85;;;;;;;;;;5050516;28;20762;-65
2022/11/11 05:36:15;;;;;;;41.53;22.83;;;;;;;;;;5050748;28;20486;-65
2022/11/11 05:38:41;;;;;;;36.08;22.42;;;;;;;;;;5050854;28;20090;-65
2022/11/11 05:41:07;;;;;;;39.53;22.10;;;;;;;;;;5048876;28;20041;-65
2022/11/11 05:43:33;;;;;;;42.17;23.92;;;;;;;;;;5050986;28;20041;-65
2022/11/11 05:45:59;;;;;;;38.67;22.48;;;;;;;;;;5050893;28;20037;-65
2022/11/11 05:48:25;;;;;;;40.47;22.67;;;;;;;;;;5050596;28;20044;-65
2022/11/11 05:50:51;;;;;;;39.75;22.95;;;;;;;;;;5053130;28;20133;-65
2022/11/11 05:53:22;;;;;;;44.33;23.27;;;;;;;;;;5054519;28;20045;-65
2022/11/11 05:55:51;;;;;;;41.38;23.63;;;;;;;;;;5053816;28;20088;-65
2022/11/11 05:58:18;;;;;;;41.72;22.38;;;;;;;;;;5054369;28;20059;-65
2022/11/11 06:00:44;;;;;;;37.03;21.63;;;;;;;;;;5053970;28;20037;-65
2022/11/11 06:03:10;;;;;;;36.75;22.35;;;;;;;;;;5054054;28;20469;-65
2022/11/11 06:05:37;;;;;;;40.60;20.80;;;;;;;;;;5054074;28;20036;-65
2022/11/11 06:08:03;;;;;;;38.53;22.05;;;;;;;;;;5054049;28;20045;-65
2022/11/11 06:10:29;;;;;;;38.35;22.55;;;;;;;;;;5053813;28;20041;-65
2022/11/11 06:13:03;;;;;;;41.17;22.05;;;;;;;;;;5053039;28;20053;-65
2022/11/11 06:15:30;;;;;;;38.60;22.45;;;;;;;;;;5053910;28;20063;-65
2022/11/11 06:17:56;;;;;;;39.75;22.02;;;;;;;;;;5053862;28;20033;-65
2022/11/11 06:20:22;;;;;;;35.70;21.73;;;;;;;;;;5053362;28;20673;-65
2022/11/11 06:22:57;;;;;;;32.17;18.80;;;;;;;;;;5053516;28;20041;-65
2022/11/11 06:28:09;;;;;;;37.08;21.60;;;;;;;;;;5053714;28;20045;-65
2022/11/11 06:30:35;;;;;;;38.05;21.70;;;;;;;;;;5053619;28;20040;-65
2022/11/11 06:33:01;;;;;;;42.35;21.30;;;;;;;;;;5053008;28;20060;-65
2022/11/11 06:35:27;;;;;;;36.95;20.85;;;;;;;;;;5053466;28;20045;-65
2022/11/11 06:37:53;;;;;;;37.55;21.77;;;;;;;;;;5053319;28;20041;-65
2022/11/11 06:40:19;;;;;;;36.75;21.17;;;;;;;;;;5052915;28;20418;-65
2022/11/11 06:42:45;;;;;;;35.72;20.48;;;;;;;;;;5053085;28;20612;-65
2022/11/11 06:45:11;;;;;;;39.63;20.65;;;;;;;;;;5053023;28;20040;-65
2022/11/11 06:47:37;;;;;;;34.08;19.73;;;;;;;;;;5053002;28;20072;-65
2022/11/11 06:50:04;;;;;;;32.50;20.15;;;;;;;;;;5052943;28;20045;-65
2022/11/11 06:52:29;;;;;;;39.20;19.83;;;;;;;;;;5052966;28;20044;-66
2022/11/11 06:54:56;;;;;;;35.50;19.63;;;;;;;;;;5055573;28;20400;-65
2022/11/11 06:57:25;;;;;;;39.92;20.83;;;;;;;;;;5051945;28;20053;-65
2022/11/11 06:59:51;;;;;;;31.85;19.27;;;;;;;;;;5052630;28;20045;-65
2022/11/11 07:02:17;;;;;;;32.90;18.67;;;;;;;;;;5052089;28;20043;-65
2022/11/11 07:04:43;;;;;;;29.67;18.63;;;;;;;;;;5052209;28;20041;-65
2022/11/11 07:07:09;;;;;;;33.58;18.75;;;;;;;;;;5052249;28;20037;-65
2022/11/11 07:09:35;;;;;;;40.03;20.15;;;;;;;;;;5052283;28;20056;-65
2022/11/11 07:12:01;;;;;;;35.55;19.50;;;;;;;;;;5051869;28;20557;-65
2022/11/11 07:14:27;;;;;;;32.78;19.02;;;;;;;;;;5052249;28;20049;-65
2022/11/11 07:16:53;;;;;;;37.17;18.67;;;;;;;;;;5052531;28;20041;-65
2022/11/11 07:19:19;;;;;;;32.95;19.15;;;;;;;;;;5045236;28;20061;-65
2022/11/11 07:21:45;;;;;;;30.98;17.95;;;;;;;;;;5046647;28;20041;-65
2022/11/11 07:24:11;;;;;;;33.83;19.15;;;;;;;;;;5051665;28;20045;-65
2022/11/11 07:26:37;;;;;;;29.27;19.50;;;;;;;;;;5051316;28;20044;-65
2022/11/11 07:29:03;;;;;;;32.92;19.80;;;;;;;;;;5052238;28;20041;-64
2022/11/11 07:31:29;;;;;;;34.28;19.50;;;;;;;;;;5051591;28;20043;-64
2022/11/11 07:33:56;;;;;;;41.00;20.08;;;;;;;;;;5050994;28;20037;-66
2022/11/11 07:36:22;;;;;;;31.85;18.73;;;;;;;;;;5051799;28;20656;-65
2022/11/11 07:38:48;;;;;;;29.60;18.08;;;;;;;;;;5051513;28;20040;-65
2022/11/11 07:41:14;;;;;;;33.28;18.27;;;;;;;;;;5049915;28;20040;-67
2022/11/11 07:43:40;;;;;;;31.23;18.83;;;;;;;;;;5037060;28;20368;-66
2022/11/11 07:46:06;;;;;;;32.40;18.08;;;;;;;;;;5049156;28;20041;-66
2022/11/11 07:48:32;;;;;;;33.28;18.90;;;;;;;;;;5050019;28;20060;-65
2022/11/11 07:50:58;;;;;;;31.75;17.40;;;;;;;;;;5051264;28;20041;-65
2022/11/11 07:53:27;;;;;;;35.95;19.35;;;;;;;;;;5051159;28;20052;-65
2022/11/11 07:55:53;;;;;;;30.67;18.27;;;;;;;;;;5044913;28;20052;-67
2022/11/11 07:58:19;;;;;;;31.15;17.38;;;;;;;;;;5029235;28;20045;-67
2022/11/11 08:00:45;;;;;;;33.17;18.80;;;;;;;;;;5050438;28;20115;-67
2022/11/11 08:03:11;;;;;;;30.65;17.55;;;;;;;;;;5050062;28;20041;-67
2022/11/11 08:05:37;;;;;;;30.02;18.13;;;;;;;;;;5050535;28;20440;-67
2022/11/11 08:08:04;;;;;;;30.65;17.05;;;;;;;;;;5050459;28;20052;-67
2022/11/11 08:10:31;;;;;;;31.17;17.92;;;;;;;;;;5049676;28;20080;-67
2022/11/11 08:15:41;;;;;;;35.22;18.95;;;;;;;;;;5034682;28;20053;-68
2022/11/11 08:18:08;;;;;;;33.72;18.33;;;;;;;;;;5041437;28;20033;-67
2022/11/11 08:20:34;;;;;;;34.03;17.30;;;;;;;;;;5047484;28;20037;-66
2022/11/11 08:23:03;;;;;;;28.63;16.90;;;;;;;;;;5047009;28;20029;-67
2022/11/11 08:25:29;;;;;;;32.50;17.65;;;;;;;;;;5047200;28;20040;-67
2022/11/11 08:27:59;;;;;;;27.40;16.55;;;;;;;;;;5045455;28;20570;-67
2022/11/11 08:30:25;;;;;;;27.73;16.63;;;;;;;;;;5048686;28;20407;-66
2022/11/11 08:33:04;;;;;;;30.13;16.42;;;;;;;;;;5048573;28;20527;-67
2022/11/11 08:35:30;;;;;;;26.33;15.30;;;;;;;;;;5046885;28;20045;-67
2022/11/11 08:38:00;;;;;;;32.28;16.70;;;;;;;;;;5047435;28;20048;-66
2022/11/11 08:40:26;;;;;;;26.02;16.38;;;;;;;;;;5049916;28;20685;-65
2022/11/11 08:42:56;;;;;;;26.42;16.05;;;;;;;;;;5047412;28;20045;-65
2022/11/11 08:45:22;;;;;;;22.85;14.75;;;;;;;;;;5046332;28;20045;-67
2022/11/11 08:47:48;;;;;;;25.73;15.68;;;;;;;;;;5051751;28;20074;-66
2022/11/11 08:50:14;;;;;;;26.30;15.40;;;;;;;;;;5040488;28;20197;-67
2022/11/11 08:52:47;;;;;;;24.15;14.50;;;;;;;;;;5040394;28;20127;-67
2022/11/11 08:55:33;;;;;;;25.52;14.98;;;;;;;;;;5049673;28;20056;-67
2022/11/11 08:58:00;;;;;;;25.55;15.18;;;;;;;;;;5001809;28;20062;-67
2022/11/11 09:00:26;;;;;;;25.90;15.38;;;;;;;;;;4993274;28;20104;-67
2022/11/11 09:02:52;;;;;;;32.30;14.90;;;;;;;;;;4995300;28;20057;-66
2022/11/11 09:05:18;;;;;;;25.55;15.13;;;;;;;;;;4994853;28;20124;-66
2022/11/11 09:07:44;;;;;;;29.50;14.98;;;;;;;;;;5006272;28;20602;-67
2022/11/11 09:10:10;;;;;;;24.23;13.80;;;;;;;;;;4998483;28;20056;-65
2022/11/11 09:12:37;;;;;;;27.77;15.15;;;;;;;;;;5004911;28;20567;-66
2022/11/11 09:15:03;;;;;;;25.33;14.25;;;;;;;;;;4998060;28;20045;-68
2022/11/11 09:17:29;;;;;;;24.70;13.95;;;;;;;;;;4989966;28;20043;-68
2022/11/11 09:19:55;;;;;;;21.35;13.98;;;;;;;;;;4998560;28;20045;-69
2022/11/11 09:22:21;;;;;;;27.48;14.75;;;;;;;;;;5001308;28;20095;-68
2022/11/11 09:24:47;;;;;;;23.00;14.05;;;;;;;;;;4994065;28;20177;-67
2022/11/11 09:27:13;;;;;;;18.40;12.95;;;;;;;;;;5009932;28;20456;-67
2022/11/11 09:29:39;;;;;;;22.63;13.98;;;;;;;;;;5034061;28;20078;-66
2022/11/11 09:32:06;;;;;;;25.75;13.70;;;;;;;;;;5050711;28;20037;-67
2022/11/11 09:34:32;;;;;;;24.33;13.13;;;;;;;;;;5051993;28;20384;-66
2022/11/11 09:36:58;;;;;;;26.55;13.40;;;;;;;;;;5051315;28;20041;-66
2022/11/11 09:39:24;;;;;;;20.55;13.07;;;;;;;;;;5035995;28;20040;-66
2022/11/11 09:42:10;;;;;;;23.27;14.10;;;;;;;;;;5048582;28;20460;-66
2022/11/11 09:44:54;;;;;;;24.10;13.40;;;;;;;;;;5037444;28;20076;-66
2022/11/11 09:47:20;;;;;;;19.73;12.82;;;;;;;;;;5048446;28;20071;-66
2022/11/11 09:49:46;;;;;;;26.20;12.95;;;;;;;;;;5052594;28;20045;-65
2022/11/11 09:52:12;;;;;;;23.27;12.93;;;;;;;;;;5052352;28;20111;-65
2022/11/11 09:54:48;;;;;;;23.48;13.30;;;;;;;;;;5049090;28;20383;-64
2022/11/11 09:57:40;;;;;;;19.92;12.85;;;;;;;;;;5047891;28;20468;-64
2022/11/11 10:00:15;;;;;;;22.67;13.35;;;;;;;;;;5048925;28;20068;-64
2022/11/11 10:02:46;;;;;;;22.48;12.52;;;;;;;;;;5052533;28;20638;-64
2022/11/11 10:05:17;;;;;;;20.13;12.07;;;;;;;;;;5053577;28;20539;-64
2022/11/11 10:07:48;;;;;;;21.23;12.15;;;;;;;;;;5049239;28;20044;-66
2022/11/11 10:10:33;;;;;;;23.77;13.40;;;;;;;;;;5051697;28;20052;-67
2022/11/11 10:12:59;;;;;;;20.40;13.02;;;;;;;;;;5050687;28;20057;-67
2022/11/11 10:15:29;;;;;;;23.15;13.13;;;;;;;;;;5043772;28;20045;-66
2022/11/11 10:18:08;;;;;;;19.25;11.82;;;;;;;;;;5039215;28;20087;-66
2022/11/11 10:20:37;;;;;;;23.60;13.20;;;;;;;;;;5050293;28;20048;-65
2022/11/11 10:23:17;;;;;;;22.08;12.05;;;;;;;;;;5042526;28;20041;-65
2022/11/11 10:25:52;;;;;;;27.02;12.68;;;;;;;;;;5046108;28;20483;-66
2022/11/11 10:28:19;;;;;;;17.65;11.55;;;;;;;;;;5041440;28;20108;-65
2022/11/11 10:30:45;;;;;;;23.27;12.30;;;;;;;;;;5050968;28;20049;-66
2022/11/11 10:33:16;;;;;;;22.42;13.20;;;;;;;;;;5050443;28;20036;-65
2022/11/11 10:35:42;;;;;;;23.35;12.55;;;;;;;;;;5049286;28;20049;-66
2022/11/11 10:38:27;;;;;;;22.55;12.52;;;;;;;;;;5045656;28;20060;-66
2022/11/11 10:40:54;;;;;;;22.75;11.98;;;;;;;;;;5041297;28;20143;-67
2022/11/11 10:43:24;;;;;;;23.30;11.80;;;;;;;;;;5041380;28;20037;-67
2022/11/11 10:45:56;;;;;;;22.58;11.75;;;;;;;;;;5039833;28;20045;-66
2022/11/11 10:48:29;;;;;;;19.83;12.23;;;;;;;;;;5034815;28;20045;-67
2022/11/11 10:50:57;;;;;;;19.67;12.43;;;;;;;;;;5040844;28;20383;-67
2022/11/11 10:53:44;;;;;;;18.45;11.32;;;;;;;;;;5038390;28;20060;-66
2022/11/11 10:56:13;;;;;;;21.40;12.43;;;;;;;;;;5042532;28;20124;-66
2022/11/11 10:58:49;;;;;;;18.10;12.27;;;;;;;;;;5043310;28;20033;-65
2022/11/11 11:01:17;;;;;;;21.60;12.60;;;;;;;;;;5043350;28;20043;-65
2022/11/11 11:03:45;;;;;;;19.45;12.27;;;;;;;;;;5052183;28;20367;-65
2022/11/11 11:06:14;;;;;;;18.17;11.80;;;;;;;;;;5050401;28;20044;-65
2022/11/11 11:09:07;;;;;;;16.02;11.52;;;;;;;;;;5048380;28;20082;-65
2022/11/11 11:11:39;;;;;;;22.10;12.43;;;;;;;;;;5016918;28;20052;-64
2022/11/11 11:14:10;;;;;;;18.70;11.95;;;;;;;;;;5049872;28;20109;-64
2022/11/11 11:16:38;;;;;;;20.77;12.27;;;;;;;;;;5031058;28;20658;-64
2022/11/11 11:19:13;;;;;;;21.05;11.77;;;;;;;;;;5045460;28;20094;-64
2022/11/11 11:21:50;;;;;;;23.42;11.73;;;;;;;;;;5051335;28;20064;-64
2022/11/11 11:24:20;;;;;;;19.88;12.02;;;;;;;;;;5050991;28;20041;-64
2022/11/11 11:26:51;;;;;;;19.30;12.02;;;;;;;;;;5050423;28;20045;-64
2022/11/11 11:29:28;;;;;;;18.00;11.65;;;;;;;;;;5051210;28;20041;-64
2022/11/11 11:31:54;;;;;;;20.10;12.30;;;;;;;;;;5046411;28;20045;-64
2022/11/11 11:34:20;;;;;;;18.92;11.70;;;;;;;;;;5050835;28;20112;-64
2022/11/11 11:37:00;;;;;;;19.73;12.27;;;;;;;;;;5051173;28;20060;-64
2022/11/11 11:39:36;;;;;;;19.38;11.80;;;;;;;;;;5051328;28;20397;-64
2022/11/11 11:42:02;;;;;;;16.35;11.05;;;;;;;;;;5044040;28;20482;-65
2022/11/11 11:44:29;;;;;;;20.60;11.93;;;;;;;;;;5045033;28;20037;-65
2022/11/11 11:47:14;;;;;;;22.02;12.05;;;;;;;;;;5048666;28;20080;-64
2022/11/11 11:49:59;;;;;;;19.13;11.90;;;;;;;;;;5050808;28;20044;-64
2022/11/11 11:52:34;;;;;;;20.17;11.90;;;;;;;;;;5046304;28;20041;-65
2022/11/11 11:55:03;;;;;;;17.55;11.00;;;;;;;;;;5049497;28;20060;-66
2022/11/11 11:57:46;;;;;;;20.90;11.18;;;;;;;;;;5049365;28;20045;-66
2022/11/11 12:00:12;;;;;;;19.92;11.75;;;;;;;;;;5044365;28;20068;-65
2022/11/11 12:02:38;;;;;;;18.05;11.18;;;;;;;;;;5047163;28;20049;-65
2022/11/11 12:05:10;;;;;;;22.02;11.93;;;;;;;;;;5047641;28;20106;-66
2022/11/11 12:07:36;;;;;;;19.30;11.60;;;;;;;;;;5047599;28;20093;-65
2022/11/11 12:10:08;;;;;;;18.42;11.80;;;;;;;;;;5049932;28;20831;-65
2022/11/11 12:12:34;;;;;;;18.02;12.45;;;;;;;;;;5049793;28;20579;-65
2022/11/11 12:15:16;;;;;;;16.40;11.75;;;;;;;;;;5049975;28;20120;-65
2022/11/11 12:17:41;;;;;;;18.42;11.20;;;;;;;;;;5050278;28;20426;-66
2022/11/11 12:20:20;;;;;;;18.88;11.27;;;;;;;;;;5058755;28;20040;-65
2022/11/11 12:22:49;;;;;;;17.23;10.95;;;;;;;;;;5047430;28;20128;-65
2022/11/11 12:25:39;;;;;;;17.35;10.82;;;;;;;;;;5045608;28;20044;-66
2022/11/11 12:28:14;;;;;;;17.50;10.27;;;;;;;;;;5036140;28;20052;-66
2022/11/11 12:30:45;;;;;;;16.73;10.48;;;;;;;;;;5039875;28;20064;-65
2022/11/11 12:33:11;;;;;;;15.43;9.77;;;;;;;;;;5049974;28;20488;-65
2022/11/11 12:35:50;;;;;;;16.88;10.15;;;;;;;;;;5048275;28;20299;-65
2022/11/11 12:38:19;;;;;;;15.20;10.10;;;;;;;;;;5050038;28;20041;-66
2022/11/11 12:40:50;;;;;;;14.88;9.55;;;;;;;;;;5048173;28;20048;-65
2022/11/11 12:43:19;;;;;;;16.75;10.48;;;;;;;;;;5049795;28;20147;-65
2022/11/11 12:45:47;;;;;;;18.17;10.57;;;;;;;;;;5049903;28;20087;-65
2022/11/11 12:48:19;;;;;;;13.75;9.90;;;;;;;;;;5046350;28;20045;-65
2022/11/11 12:50:45;;;;;;;;;;;;;;;;;;5046655;28;20060;-65
2022/11/11 12:53:25;;;;;;;16.40;9.80;;;;;;;;;;5048665;28;20677;-65
2022/11/11 12:56:04;;;;;;;14.70;10.45;;;;;;;;;;5041245;28;20218;-65
2022/11/11 12:58:38;;;;;;;15.40;10.13;;;;;;;;;;5049859;28;20433;-65
2022/11/11 13:01:04;;;;;;;14.18;8.93;;;;;;;;;;5053681;28;20457;-65
2022/11/11 13:03:50;;;;;;;14.40;9.40;;;;;;;;;;5053079;28;20041;-65
2022/11/11 13:06:16;;;;;;;17.27;10.07;;;;;;;;;;5050878;28;20045;-65
2022/11/11 13:08:45;;;;;;;15.02;10.43;;;;;;;;;;5048817;28;20075;-65
2022/11/11 13:11:34;;;;;;;16.67;10.90;;;;;;;;;;5058219;28;20125;-65
2022/11/11 13:14:03;;;;;;;15.63;10.15;;;;;;;;;;5015690;28;20060;-65
2022/11/11 13:16:30;;;;;;;16.33;9.65;;;;;;;;;;5053944;28;20049;-65
2022/11/11 13:18:58;;;;;;;18.08;10.57;;;;;;;;;;5053214;28;20029;-65
2022/11/11 13:21:29;;;;;;;14.43;9.70;;;;;;;;;;5052807;28;20090;-65
2022/11/11 13:23:55;;;;;;;15.52;9.65;;;;;;;;;;5053823;28;20033;-65
2022/11/11 13:26:35;;;;;;;15.77;10.05;;;;;;;;;;5052259;28;20662;-65
2022/11/11 13:29:10;;;;;;;14.88;10.13;;;;;;;;;;5048776;28;20083;-66
2022/11/11 13:31:39;;;;;;;16.40;9.75;;;;;;;;;;5052619;28;20037;-65
2022/11/11 13:34:09;;;;;;;15.38;9.85;;;;;;;;;;5050509;28;20124;-65
2022/11/11 13:36:46;;;;;;;15.52;10.02;;;;;;;;;;5052311;28;20076;-65
2022/11/11 13:39:31;;;;;;;18.17;9.95;;;;;;;;;;5047734;28;20703;-65
2022/11/11 13:41:58;;;;;;;17.23;9.77;;;;;;;;;;5048475;28;20041;-65
2022/11/11 13:44:26;;;;;;;14.48;9.30;;;;;;;;;;5053325;28;20033;-65
2022/11/11 13:46:55;;;;;;;14.57;9.52;;;;;;;;;;5046882;28;20045;-65
2022/11/11 13:49:21;;;;;;;14.57;9.30;;;;;;;;;;5050984;28;20091;-65
2022/11/11 13:51:56;;;;;;;13.82;8.77;;;;;;;;;;5054102;28;20116;-65
2022/11/11 13:54:25;;;;;;;16.45;10.43;;;;;;;;;;5054344;28;20045;-65
2022/11/11 13:56:52;;;;;;;14.43;9.90;;;;;;;;;;5054149;28;20044;-65
2022/11/11 13:59:26;;;;;;;14.27;9.98;;;;;;;;;;5054171;28;20124;-65
2022/11/11 14:02:11;;;;;;;12.88;9.65;;;;;;;;;;5054340;28;20036;-65
2022/11/11 14:04:56;;;;;;;15.07;10.13;;;;;;;;;;5053713;28;20044;-65
2022/11/11 14:07:40;;;;;;;12.32;8.90;;;;;;;;;;5053011;28;20143;-65
2022/11/11 14:10:06;;;;;;;14.38;9.88;;;;;;;;;;5053149;28;20072;-65
2022/11/11 14:12:37;;;;;;;12.02;9.23;;;;;;;;;;5053171;28;20056;-65
2022/11/11 14:15:06;;;;;;;15.00;10.05;;;;;;;;;;5053957;28;20071;-65
2022/11/11 14:17:33;;;;;;;12.13;8.90;;;;;;;;;;5054062;28;20044;-65
2022/11/11 14:19:59;;;;;;;13.60;10.07;;;;;;;;;;5053211;28;20044;-65
2022/11/11 14:22:25;;;;;;;14.35;8.80;;;;;;;;;;5053937;28;20124;-65
2022/11/11 14:24:51;;;;;;;13.43;9.27;;;;;;;;;;5053956;28;20045;-65
2022/11/11 14:27:21;;;;;;;15.55;9.90;;;;;;;;;;5053120;28;20084;-65
2022/11/11 14:29:52;;;;;;;14.88;9.50;;;;;;;;;;5053428;28;20047;-65
2022/11/11 14:32:18;;;;;;;12.52;8.82;;;;;;;;;;5053355;28;20041;-65
2022/11/11 14:34:50;;;;;;;12.60;8.70;;;;;;;;;;5052999;28;20075;-65
2022/11/11 14:37:16;;;;;;;;;;;;;;;;;;5053973;28;20071;-65
2022/11/11 14:39:53;;;;;;;15.77;9.38;;;;;;;;;;5053505;28;20343;-65
2022/11/11 14:42:34;;;;;;;17.52;9.93;;;;;;;;;;5053234;28;20033;-65
2022/11/11 14:45:04;;;;;;;15.32;9.60;;;;;;;;;;5053448;28;20047;-65
2022/11/11 14:47:31;;;;;;;13.40;9.10;;;;;;;;;;5053395;28;20127;-65
2022/11/11 14:49:58;;;;;;;14.95;10.25;;;;;;;;;;5052922;28;20431;-65
2022/11/11 14:52:42;;;;;;;14.18;9.77;;;;;;;;;;5053322;28;20041;-65
2022/11/11 14:55:11;;;;;;;14.07;9.80;;;;;;;;;;5053129;28;20380;-65
2022/11/11 14:57:50;;;;;;;17.90;9.70;;;;;;;;;;5052762;28;20141;-65
2022/11/11 15:00:16;;;;;;;14.07;9.45;;;;;;;;;;5052917;28;20048;-65
2022/11/11 15:02:54;;;;;;;16.77;10.15;;;;;;;;;;5053081;28;20045;-65
2022/11/11 15:05:26;;;;;;;16.40;9.98;;;;;;;;;;5052826;28;20045;-65
2022/11/11 15:07:55;;;;;;;16.50;9.73;;;;;;;;;;5053132;28;20428;-65
2022/11/11 15:10:28;;;;;;;15.52;9.45;;;;;;;;;;5052744;28;20044;-65
2022/11/11 15:12:57;;;;;;;14.32;10.52;;;;;;;;;;5052412;28;20061;-65
2022/11/11 15:15:48;;;;;;;16.05;9.70;;;;;;;;;;5052714;28;20106;-65
2022/11/11 15:18:33;;;;;;;15.27;9.55;;;;;;;;;;5052682;28;20380;-65
2022/11/11 15:21:31;;;;;;;14.50;9.05;;;;;;;;;;5052513;28;20037;-65
2022/11/11 15:24:23;;;;;;;15.38;10.48;;;;;;;;;;5019053;28;20064;-65
2022/11/11 15:26:49;;;;;;;16.70;10.38;;;;;;;;;;5048372;28;20488;-65
2022/11/11 15:29:19;;;;;;;16.42;10.60;;;;;;;;;;5052660;28;20102;-65
2022/11/11 15:32:11;;;;;;;15.82;10.95;;;;;;;;;;5052332;28;20090;-65
2022/11/11 15:34:37;;;;;;;21.55;11.20;;;;;;;;;;5048098;28;20092;-65
2022/11/11 15:37:05;;;;;;;20.35;11.68;;;;;;;;;;5052494;28;20139;-65
2022/11/11 15:39:37;;;;;;;18.13;11.82;;;;;;;;;;5052029;28;20076;-65
2022/11/11 15:42:03;;;;;;;19.25;11.60;;;;;;;;;;5052083;28;20041;-65
2022/11/11 15:44:31;;;;;;;22.35;12.20;;;;;;;;;;5052568;28;20071;-65
2022/11/11 15:46:57;;;;;;;20.73;11.80;;;;;;;;;;5052463;28;20062;-65
2022/11/11 15:49:43;;;;;;;17.63;11.23;;;;;;;;;;5051723;28;20029;-65
2022/11/11 15:52:30;;;;;;;19.02;11.60;;;;;;;;;;5052295;28;20643;-65